sensor_id;sensor_type;location;lat;lon;timestamp;temperature;humidity
3850;DHT22;1940;51.052;13.678;2022-12-18T00:01:47;-6.30;87.50
3850;DHT22;1940;51.052;13.678;2022-12-18T00:04:24;-6.30;87.50
3850;DHT22;1940;51.052;13.678;2022-12-18T00:06:50;-6.30;87.60
3850;DHT22;1940;51.052;13.678;2022-12-18T00:09:16;-6.40;87.50
3850;DHT22;1940;51.052;13.678;2022-12-18T00:11:42;-6.40;87.50
3850;DHT22;1940;51.052;13.678;2022-12-18T00:14:09;-6.50;87.70
3850;DHT22;1940;51.052;13.678;2022-12-18T00:16:35;-6.40;87.60
3850;DHT22;1940;51.052;13.678;2022-12-18T00:19:02;-6.40;87.50
3850;DHT22;1940;51.052;13.678;2022-12-18T00:21:29;-6.50;87.40
3850;DHT22;1940;51.052;13.678;2022-12-18T00:23:56;-6.60;87.30
3850;DHT22;1940;51.052;13.678;2022-12-18T00:26:27;-6.80;87.70
3850;DHT22;1940;51.052;13.678;2022-12-18T00:28:53;-6.80;88.20
3850;DHT22;1940;51.052;13.678;2022-12-18T00:31:22;-6.80;88.40
3850;DHT22;1940;51.052;13.678;2022-12-18T00:33:49;-6.80;88.60
3850;DHT22;1940;51.052;13.678;2022-12-18T00:36:17;-6.70;88.60
3850;DHT22;1940;51.052;13.678;2022-12-18T00:38:44;-6.80;88.50
3850;DHT22;1940;51.052;13.678;2022-12-18T00:41:12;-6.70;88.60
3850;DHT22;1940;51.052;13.678;2022-12-18T00:43:38;-6.70;88.40
3850;DHT22;1940;51.052;13.678;2022-12-18T00:46:05;-6.70;88.10
3850;DHT22;1940;51.052;13.678;2022-12-18T00:48:31;-6.70;87.90
3850;DHT22;1940;51.052;13.678;2022-12-18T00:50:56;-6.70;87.70
3850;DHT22;1940;51.052;13.678;2022-12-18T00:53:22;-6.70;87.60
3850;DHT22;1940;51.052;13.678;2022-12-18T00:55:48;-6.70;87.60
3850;DHT22;1940;51.052;13.678;2022-12-18T00:58:15;-6.80;87.40
3850;DHT22;1940;51.052;13.678;2022-12-18T01:00:41;-7.00;87.50
3850;DHT22;1940;51.052;13.678;2022-12-18T01:03:07;-7.10;87.70
3850;DHT22;1940;51.052;13.678;2022-12-18T01:05:33;-7.10;87.50
3850;DHT22;1940;51.052;13.678;2022-12-18T01:07:59;-7.10;87.50
3850;DHT22;1940;51.052;13.678;2022-12-18T01:10:25;-7.00;87.20
3850;DHT22;1940;51.052;13.678;2022-12-18T01:12:50;-7.00;86.70
3850;DHT22;1940;51.052;13.678;2022-12-18T01:15:17;-7.00;86.60
3850;DHT22;1940;51.052;13.678;2022-12-18T01:17:43;-7.00;86.70
3850;DHT22;1940;51.052;13.678;2022-12-18T01:20:10;-7.00;87.10
3850;DHT22;1940;51.052;13.678;2022-12-18T01:22:36;-7.10;87.30
3850;DHT22;1940;51.052;13.678;2022-12-18T01:25:03;-7.20;87.30
3850;DHT22;1940;51.052;13.678;2022-12-18T01:27:29;-7.30;87.60
3850;DHT22;1940;51.052;13.678;2022-12-18T01:29:55;-7.40;87.80
3850;DHT22;1940;51.052;13.678;2022-12-18T01:32:20;-7.40;88.00
3850;DHT22;1940;51.052;13.678;2022-12-18T01:34:47;-7.40;88.10
3850;DHT22;1940;51.052;13.678;2022-12-18T01:37:12;-7.30;88.30
3850;DHT22;1940;51.052;13.678;2022-12-18T01:39:38;-7.20;88.20
3850;DHT22;1940;51.052;13.678;2022-12-18T01:42:12;-7.10;88.00
3850;DHT22;1940;51.052;13.678;2022-12-18T01:47:27;-7.10;87.70
3850;DHT22;1940;51.052;13.678;2022-12-18T01:49:55;-7.10;87.70
3850;DHT22;1940;51.052;13.678;2022-12-18T01:52:21;-7.00;87.40
3850;DHT22;1940;51.052;13.678;2022-12-18T01:54:49;-7.00;86.90
3850;DHT22;1940;51.052;13.678;2022-12-18T01:57:16;-7.00;86.50
3850;DHT22;1940;51.052;13.678;2022-12-18T01:59:43;-7.00;86.20
3850;DHT22;1940;51.052;13.678;2022-12-18T02:02:09;-7.10;85.80
3850;DHT22;1940;51.052;13.678;2022-12-18T02:04:35;-7.20;85.80
3850;DHT22;1940;51.052;13.678;2022-12-18T02:07:33;-7.20;86.00
3850;DHT22;1940;51.052;13.678;2022-12-18T02:10:07;-7.20;86.00
3850;DHT22;1940;51.052;13.678;2022-12-18T02:12:48;-7.20;86.00
3850;DHT22;1940;51.052;13.678;2022-12-18T02:15:29;-7.30;86.00
3850;DHT22;1940;51.052;13.678;2022-12-18T02:18:07;-7.40;86.10
3850;DHT22;1940;51.052;13.678;2022-12-18T02:20:43;-7.30;86.60
3850;DHT22;1940;51.052;13.678;2022-12-18T02:25:58;-7.30;86.70
3850;DHT22;1940;51.052;13.678;2022-12-18T02:28:31;-7.30;86.50
3850;DHT22;1940;51.052;13.678;2022-12-18T02:31:00;-7.30;86.40
3850;DHT22;1940;51.052;13.678;2022-12-18T02:33:28;-7.40;86.40
3850;DHT22;1940;51.052;13.678;2022-12-18T02:35:57;-7.40;86.30
3850;DHT22;1940;51.052;13.678;2022-12-18T02:38:24;-7.50;86.30
3850;DHT22;1940;51.052;13.678;2022-12-18T02:40:51;-7.60;86.40
3850;DHT22;1940;51.052;13.678;2022-12-18T02:43:18;-7.60;86.80
3850;DHT22;1940;51.052;13.678;2022-12-18T02:45:50;-7.50;86.90
3850;DHT22;1940;51.052;13.678;2022-12-18T02:48:18;-7.50;86.70
3850;DHT22;1940;51.052;13.678;2022-12-18T02:51:52;-7.60;87.00
3850;DHT22;1940;51.052;13.678;2022-12-18T02:53:53;-7.50;86.90
3850;DHT22;1940;51.052;13.678;2022-12-18T02:56:35;-7.50;86.80
3850;DHT22;1940;51.052;13.678;2022-12-18T02:59:13;-7.50;86.70
3850;DHT22;1940;51.052;13.678;2022-12-18T03:01:51;-7.50;86.50
3850;DHT22;1940;51.052;13.678;2022-12-18T03:04:27;-7.50;86.40
3850;DHT22;1940;51.052;13.678;2022-12-18T03:06:57;-7.60;86.10
3850;DHT22;1940;51.052;13.678;2022-12-18T03:09:36;-7.60;85.90
3850;DHT22;1940;51.052;13.678;2022-12-18T03:12:30;-7.60;85.60
3850;DHT22;1940;51.052;13.678;2022-12-18T03:18:35;-7.60;85.70
3850;DHT22;1940;51.052;13.678;2022-12-18T03:20:36;-7.60;85.80
3850;DHT22;1940;51.052;13.678;2022-12-18T03:23:10;-7.60;86.10
3850;DHT22;1940;51.052;13.678;2022-12-18T03:25:40;-7.60;86.00
3850;DHT22;1940;51.052;13.678;2022-12-18T03:28:12;-7.60;85.90
3850;DHT22;1940;51.052;13.678;2022-12-18T03:30:40;-7.70;85.90
3850;DHT22;1940;51.052;13.678;2022-12-18T03:35:40;-7.70;86.00
3850;DHT22;1940;51.052;13.678;2022-12-18T03:38:07;-7.70;86.10
3850;DHT22;1940;51.052;13.678;2022-12-18T03:46:15;-7.70;85.80
3850;DHT22;1940;51.052;13.678;2022-12-18T03:48:46;-7.80;85.70
3850;DHT22;1940;51.052;13.678;2022-12-18T03:53:59;-7.80;85.60
3850;DHT22;1940;51.052;13.678;2022-12-18T03:56:28;-7.80;85.60
3850;DHT22;1940;51.052;13.678;2022-12-18T03:58:55;-7.80;85.60
3850;DHT22;1940;51.052;13.678;2022-12-18T04:01:27;-7.80;85.70
3850;DHT22;1940;51.052;13.678;2022-12-18T04:03:54;-7.80;85.80
3850;DHT22;1940;51.052;13.678;2022-12-18T04:06:21;-7.80;85.60
3850;DHT22;1940;51.052;13.678;2022-12-18T04:08:46;-7.80;85.60
3850;DHT22;1940;51.052;13.678;2022-12-18T04:11:12;-7.80;85.60
3850;DHT22;1940;51.052;13.678;2022-12-18T04:13:38;-7.80;85.70
3850;DHT22;1940;51.052;13.678;2022-12-18T04:16:04;-7.80;85.70
3850;DHT22;1940;51.052;13.678;2022-12-18T04:18:30;-7.80;85.50
3850;DHT22;1940;51.052;13.678;2022-12-18T04:20:56;-7.80;85.60
3850;DHT22;1940;51.052;13.678;2022-12-18T04:23:22;-7.80;85.70
3850;DHT22;1940;51.052;13.678;2022-12-18T04:25:47;-7.90;85.70
3850;DHT22;1940;51.052;13.678;2022-12-18T04:28:13;-7.90;85.70
3850;DHT22;1940;51.052;13.678;2022-12-18T04:30:39;-7.90;85.70
3850;DHT22;1940;51.052;13.678;2022-12-18T04:33:08;-7.90;85.60
3850;DHT22;1940;51.052;13.678;2022-12-18T04:35:34;-7.90;85.70
3850;DHT22;1940;51.052;13.678;2022-12-18T04:37:59;-8.00;85.80
3850;DHT22;1940;51.052;13.678;2022-12-18T04:40:25;-8.00;86.10
3850;DHT22;1940;51.052;13.678;2022-12-18T04:42:50;-8.00;86.30
3850;DHT22;1940;51.052;13.678;2022-12-18T04:45:16;-8.00;86.20
3850;DHT22;1940;51.052;13.678;2022-12-18T04:47:41;-8.00;85.80
3850;DHT22;1940;51.052;13.678;2022-12-18T04:50:07;-8.00;85.80
3850;DHT22;1940;51.052;13.678;2022-12-18T04:52:33;-8.00;85.70
3850;DHT22;1940;51.052;13.678;2022-12-18T04:54:58;-8.10;86.10
3850;DHT22;1940;51.052;13.678;2022-12-18T04:57:24;-8.10;86.20
3850;DHT22;1940;51.052;13.678;2022-12-18T04:59:49;-8.10;86.20
3850;DHT22;1940;51.052;13.678;2022-12-18T05:02:15;-8.10;86.40
3850;DHT22;1940;51.052;13.678;2022-12-18T05:04:40;-8.10;86.40
3850;DHT22;1940;51.052;13.678;2022-12-18T05:07:06;-8.10;86.40
3850;DHT22;1940;51.052;13.678;2022-12-18T05:09:31;-8.00;86.40
3850;DHT22;1940;51.052;13.678;2022-12-18T05:11:57;-8.00;86.40
3850;DHT22;1940;51.052;13.678;2022-12-18T05:14:23;-8.10;86.20
3850;DHT22;1940;51.052;13.678;2022-12-18T05:16:48;-8.10;86.50
3850;DHT22;1940;51.052;13.678;2022-12-18T05:19:14;-8.10;86.40
3850;DHT22;1940;51.052;13.678;2022-12-18T05:21:39;-8.10;86.20
3850;DHT22;1940;51.052;13.678;2022-12-18T05:24:05;-8.10;86.10
3850;DHT22;1940;51.052;13.678;2022-12-18T05:26:31;-8.10;86.40
3850;DHT22;1940;51.052;13.678;2022-12-18T05:28:56;-8.20;86.10
3850;DHT22;1940;51.052;13.678;2022-12-18T05:31:22;-8.20;86.00
3850;DHT22;1940;51.052;13.678;2022-12-18T05:33:48;-8.40;86.40
3850;DHT22;1940;51.052;13.678;2022-12-18T05:36:13;-8.40;86.70
3850;DHT22;1940;51.052;13.678;2022-12-18T05:38:39;-8.40;86.90
3850;DHT22;1940;51.052;13.678;2022-12-18T05:41:05;-8.50;87.10
3850;DHT22;1940;51.052;13.678;2022-12-18T05:43:31;-8.50;87.10
3850;DHT22;1940;51.052;13.678;2022-12-18T05:46:06;-8.50;87.20
3850;DHT22;1940;51.052;13.678;2022-12-18T05:48:32;-8.40;86.80
3850;DHT22;1940;51.052;13.678;2022-12-18T05:51:04;-8.40;86.60
3850;DHT22;1940;51.052;13.678;2022-12-18T05:53:30;-8.50;86.60
3850;DHT22;1940;51.052;13.678;2022-12-18T05:56:00;-8.40;86.90
3850;DHT22;1940;51.052;13.678;2022-12-18T05:58:25;-8.40;86.90
3850;DHT22;1940;51.052;13.678;2022-12-18T06:00:51;-8.30;86.40
3850;DHT22;1940;51.052;13.678;2022-12-18T06:03:17;-8.30;85.80
3850;DHT22;1940;51.052;13.678;2022-12-18T06:05:44;-8.40;85.40
3850;DHT22;1940;51.052;13.678;2022-12-18T06:08:12;-8.40;85.50
3850;DHT22;1940;51.052;13.678;2022-12-18T06:10:38;-8.40;85.90
3850;DHT22;1940;51.052;13.678;2022-12-18T06:13:07;-8.40;86.00
3850;DHT22;1940;51.052;13.678;2022-12-18T06:15:35;-8.30;85.80
3850;DHT22;1940;51.052;13.678;2022-12-18T06:18:03;-8.40;85.40
3850;DHT22;1940;51.052;13.678;2022-12-18T06:20:29;-8.40;85.40
3850;DHT22;1940;51.052;13.678;2022-12-18T06:22:54;-8.40;85.80
3850;DHT22;1940;51.052;13.678;2022-12-18T06:25:20;-8.30;85.90
3850;DHT22;1940;51.052;13.678;2022-12-18T06:27:47;-8.30;85.90
3850;DHT22;1940;51.052;13.678;2022-12-18T06:30:13;-8.30;85.90
3850;DHT22;1940;51.052;13.678;2022-12-18T06:32:39;-8.30;85.90
3850;DHT22;1940;51.052;13.678;2022-12-18T06:35:04;-8.30;86.10
3850;DHT22;1940;51.052;13.678;2022-12-18T06:37:31;-8.30;86.00
3850;DHT22;1940;51.052;13.678;2022-12-18T06:39:57;-8.30;85.90
3850;DHT22;1940;51.052;13.678;2022-12-18T06:42:24;-8.30;85.80
3850;DHT22;1940;51.052;13.678;2022-12-18T06:44:50;-8.20;85.80
3850;DHT22;1940;51.052;13.678;2022-12-18T06:47:15;-8.30;85.70
3850;DHT22;1940;51.052;13.678;2022-12-18T06:49:41;-8.30;85.90
3850;DHT22;1940;51.052;13.678;2022-12-18T06:52:06;-8.30;85.70
3850;DHT22;1940;51.052;13.678;2022-12-18T06:54:32;-8.30;85.70
3850;DHT22;1940;51.052;13.678;2022-12-18T06:56:57;-8.30;85.60
3850;DHT22;1940;51.052;13.678;2022-12-18T06:59:24;-8.30;85.50
3850;DHT22;1940;51.052;13.678;2022-12-18T07:01:49;-8.30;85.20
3850;DHT22;1940;51.052;13.678;2022-12-18T07:04:15;-8.40;85.20
3850;DHT22;1940;51.052;13.678;2022-12-18T07:06:41;-8.50;84.90
3850;DHT22;1940;51.052;13.678;2022-12-18T07:09:06;-8.50;84.80
3850;DHT22;1940;51.052;13.678;2022-12-18T07:11:33;-8.50;84.80
3850;DHT22;1940;51.052;13.678;2022-12-18T07:13:59;-8.50;84.70
3850;DHT22;1940;51.052;13.678;2022-12-18T07:16:24;-8.50;84.90
3850;DHT22;1940;51.052;13.678;2022-12-18T07:18:50;-8.60;85.00
3850;DHT22;1940;51.052;13.678;2022-12-18T07:21:18;-8.60;85.30
3850;DHT22;1940;51.052;13.678;2022-12-18T07:23:44;-8.60;85.30
3850;DHT22;1940;51.052;13.678;2022-12-18T07:26:14;-8.60;85.30
3850;DHT22;1940;51.052;13.678;2022-12-18T07:28:41;-8.60;85.40
3850;DHT22;1940;51.052;13.678;2022-12-18T07:31:12;-8.50;85.30
3850;DHT22;1940;51.052;13.678;2022-12-18T07:33:38;-8.50;85.30
3850;DHT22;1940;51.052;13.678;2022-12-18T07:36:06;-8.50;85.30
3850;DHT22;1940;51.052;13.678;2022-12-18T07:38:34;-8.50;85.20
3850;DHT22;1940;51.052;13.678;2022-12-18T07:41:10;-8.40;84.90
3850;DHT22;1940;51.052;13.678;2022-12-18T07:43:37;-8.40;84.50
3850;DHT22;1940;51.052;13.678;2022-12-18T07:46:05;-8.30;84.60
3850;DHT22;1940;51.052;13.678;2022-12-18T07:48:31;-8.20;85.40
3850;DHT22;1940;51.052;13.678;2022-12-18T07:51:01;-8.10;85.50
3850;DHT22;1940;51.052;13.678;2022-12-18T07:53:27;-8.00;85.00
3850;DHT22;1940;51.052;13.678;2022-12-18T07:55:57;-7.90;85.80
3850;DHT22;1940;51.052;13.678;2022-12-18T07:58:23;-7.80;85.90
3850;DHT22;1940;51.052;13.678;2022-12-18T08:00:48;-7.60;86.00
3850;DHT22;1940;51.052;13.678;2022-12-18T08:03:14;-7.20;86.10
3850;DHT22;1940;51.052;13.678;2022-12-18T08:05:39;-6.70;85.20
3850;DHT22;1940;51.052;13.678;2022-12-18T08:08:05;-6.20;84.80
3850;DHT22;1940;51.052;13.678;2022-12-18T08:10:30;-5.50;82.50
3850;DHT22;1940;51.052;13.678;2022-12-18T08:12:56;-4.60;81.40
3850;DHT22;1940;51.052;13.678;2022-12-18T08:15:21;-3.30;79.50
3850;DHT22;1940;51.052;13.678;2022-12-18T08:17:47;-2.00;73.90
3850;DHT22;1940;51.052;13.678;2022-12-18T08:20:13;-0.60;70.80
3850;DHT22;1940;51.052;13.678;2022-12-18T08:22:43;0.70;67.10
3850;DHT22;1940;51.052;13.678;2022-12-18T08:25:08;1.90;63.20
3850;DHT22;1940;51.052;13.678;2022-12-18T08:27:34;2.80;60.20
3850;DHT22;1940;51.052;13.678;2022-12-18T08:30:00;3.70;58.90
3850;DHT22;1940;51.052;13.678;2022-12-18T08:32:27;4.60;57.00
3850;DHT22;1940;51.052;13.678;2022-12-18T08:34:52;5.20;54.20
3850;DHT22;1940;51.052;13.678;2022-12-18T08:37:18;5.80;53.00
3850;DHT22;1940;51.052;13.678;2022-12-18T08:39:44;6.00;52.10
3850;DHT22;1940;51.052;13.678;2022-12-18T08:42:09;5.80;52.70
3850;DHT22;1940;51.052;13.678;2022-12-18T08:44:54;6.30;51.80
3850;DHT22;1940;51.052;13.678;2022-12-18T08:47:19;6.40;51.60
3850;DHT22;1940;51.052;13.678;2022-12-18T08:49:45;7.10;50.60
3850;DHT22;1940;51.052;13.678;2022-12-18T08:52:10;7.20;50.10
3850;DHT22;1940;51.052;13.678;2022-12-18T08:54:36;7.40;49.60
3850;DHT22;1940;51.052;13.678;2022-12-18T08:57:02;7.60;49.90
3850;DHT22;1940;51.052;13.678;2022-12-18T08:59:28;8.00;49.20
3850;DHT22;1940;51.052;13.678;2022-12-18T09:01:54;7.50;49.30
3850;DHT22;1940;51.052;13.678;2022-12-18T09:04:20;7.80;49.40
3850;DHT22;1940;51.052;13.678;2022-12-18T09:06:46;8.20;48.80
3850;DHT22;1940;51.052;13.678;2022-12-18T09:09:12;8.40;47.90
3850;DHT22;1940;51.052;13.678;2022-12-18T09:11:38;8.70;47.40
3850;DHT22;1940;51.052;13.678;2022-12-18T09:14:04;8.90;46.80
3850;DHT22;1940;51.052;13.678;2022-12-18T09:16:30;8.50;47.60
3850;DHT22;1940;51.052;13.678;2022-12-18T09:18:57;8.50;47.90
3850;DHT22;1940;51.052;13.678;2022-12-18T09:21:27;8.00;48.20
3850;DHT22;1940;51.052;13.678;2022-12-18T09:23:54;8.00;48.70
3850;DHT22;1940;51.052;13.678;2022-12-18T09:26:24;8.20;48.50
3850;DHT22;1940;51.052;13.678;2022-12-18T09:28:50;8.50;47.80
3850;DHT22;1940;51.052;13.678;2022-12-18T09:31:19;9.10;47.00
3850;DHT22;1940;51.052;13.678;2022-12-18T09:33:44;8.70;46.80
3850;DHT22;1940;51.052;13.678;2022-12-18T09:36:15;8.10;48.10
3850;DHT22;1940;51.052;13.678;2022-12-18T09:38:41;8.20;48.60
3850;DHT22;1940;51.052;13.678;2022-12-18T09:41:33;8.50;48.40
3850;DHT22;1940;51.052;13.678;2022-12-18T09:44:18;9.00;47.50
3850;DHT22;1940;51.052;13.678;2022-12-18T09:46:49;8.80;47.50
3850;DHT22;1940;51.052;13.678;2022-12-18T09:49:20;7.60;49.00
3850;DHT22;1940;51.052;13.678;2022-12-18T09:51:52;7.40;50.10
3850;DHT22;1940;51.052;13.678;2022-12-18T09:57:14;6.70;51.30
3850;DHT22;1940;51.052;13.678;2022-12-18T09:59:42;7.00;51.60
3850;DHT22;1940;51.052;13.678;2022-12-18T10:02:17;7.00;51.40
3850;DHT22;1940;51.052;13.678;2022-12-18T10:04:43;6.90;51.80
3850;DHT22;1940;51.052;13.678;2022-12-18T10:07:59;6.80;51.90
3850;DHT22;1940;51.052;13.678;2022-12-18T10:18:35;6.50;53.50
3850;DHT22;1940;51.052;13.678;2022-12-18T10:21:17;6.50;53.80
3850;DHT22;1940;51.052;13.678;2022-12-18T10:23:56;6.50;54.00
3850;DHT22;1940;51.052;13.678;2022-12-18T10:26:23;6.60;54.00
3850;DHT22;1940;51.052;13.678;2022-12-18T10:28:49;6.90;53.80
3850;DHT22;1940;51.052;13.678;2022-12-18T10:31:19;6.80;53.80
3850;DHT22;1940;51.052;13.678;2022-12-18T10:33:45;6.20;54.70
3850;DHT22;1940;51.052;13.678;2022-12-18T10:36:11;6.10;55.40
3850;DHT22;1940;51.052;13.678;2022-12-18T10:38:37;6.10;55.60
3850;DHT22;1940;51.052;13.678;2022-12-18T10:43:40;6.80;54.20
3850;DHT22;1940;51.052;13.678;2022-12-18T10:51:31;7.80;52.70
3850;DHT22;1940;51.052;13.678;2022-12-18T10:56:29;8.30;51.60
3850;DHT22;1940;51.052;13.678;2022-12-18T10:59:01;8.10;51.70
3850;DHT22;1940;51.052;13.678;2022-12-18T11:01:28;8.10;52.20
3850;DHT22;1940;51.052;13.678;2022-12-18T11:06:23;8.00;51.20
3850;DHT22;1940;51.052;13.678;2022-12-18T11:11:24;7.30;52.80
3850;DHT22;1940;51.052;13.678;2022-12-18T11:14:12;7.10;53.30
3850;DHT22;1940;51.052;13.678;2022-12-18T11:16:47;7.20;53.80
3850;DHT22;1940;51.052;13.678;2022-12-18T11:19:21;7.40;53.10
3850;DHT22;1940;51.052;13.678;2022-12-18T11:21:48;7.60;53.00
3850;DHT22;1940;51.052;13.678;2022-12-18T11:24:31;7.50;52.80
3850;DHT22;1940;51.052;13.678;2022-12-18T11:27:05;7.00;53.50
3850;DHT22;1940;51.052;13.678;2022-12-18T11:29:38;6.10;54.20
3850;DHT22;1940;51.052;13.678;2022-12-18T11:32:25;5.40;56.00
3850;DHT22;1940;51.052;13.678;2022-12-18T11:34:58;5.20;57.20
3850;DHT22;1940;51.052;13.678;2022-12-18T11:37:25;5.30;57.30
3850;DHT22;1940;51.052;13.678;2022-12-18T11:40:13;5.40;56.70
3850;DHT22;1940;51.052;13.678;2022-12-18T11:43:02;5.20;57.10
3850;DHT22;1940;51.052;13.678;2022-12-18T11:45:34;5.30;57.20
3850;DHT22;1940;51.052;13.678;2022-12-18T11:48:06;5.10;57.20
3850;DHT22;1940;51.052;13.678;2022-12-18T11:50:48;4.80;58.30
3850;DHT22;1940;51.052;13.678;2022-12-18T11:53:15;5.20;58.20
3850;DHT22;1940;51.052;13.678;2022-12-18T11:56:00;6.00;56.80
3850;DHT22;1940;51.052;13.678;2022-12-18T11:58:47;5.60;55.90
3850;DHT22;1940;51.052;13.678;2022-12-18T12:04:41;5.00;57.70
3850;DHT22;1940;51.052;13.678;2022-12-18T12:10:05;4.00;59.00
3850;DHT22;1940;51.052;13.678;2022-12-18T12:18:28;3.10;60.90
3850;DHT22;1940;51.052;13.678;2022-12-18T12:21:06;2.30;63.10
3850;DHT22;1940;51.052;13.678;2022-12-18T12:24:09;1.80;64.20
3850;DHT22;1940;51.052;13.678;2022-12-18T12:32:34;0.30;69.00
3850;DHT22;1940;51.052;13.678;2022-12-18T12:38:16;-0.50;70.90
3850;DHT22;1940;51.052;13.678;2022-12-18T12:40:58;-0.70;72.20
3850;DHT22;1940;51.052;13.678;2022-12-18T12:46:05;-1.00;73.40
3850;DHT22;1940;51.052;13.678;2022-12-18T12:48:50;-1.10;73.70
3850;DHT22;1940;51.052;13.678;2022-12-18T12:51:21;-1.10;74.20
3850;DHT22;1940;51.052;13.678;2022-12-18T12:53:48;-1.20;74.50
3850;DHT22;1940;51.052;13.678;2022-12-18T12:56:16;-1.10;74.50
3850;DHT22;1940;51.052;13.678;2022-12-18T13:01:36;-1.20;74.70
3850;DHT22;1940;51.052;13.678;2022-12-18T13:06:53;-1.40;75.30
3850;DHT22;1940;51.052;13.678;2022-12-18T13:09:21;-1.50;75.50
3850;DHT22;1940;51.052;13.678;2022-12-18T13:11:47;-1.60;75.50
3850;DHT22;1940;51.052;13.678;2022-12-18T13:14:39;-1.60;76.00
3850;DHT22;1940;51.052;13.678;2022-12-18T13:19:50;-1.70;76.40
3850;DHT22;1940;51.052;13.678;2022-12-18T13:22:40;-1.80;76.40
3850;DHT22;1940;51.052;13.678;2022-12-18T13:25:39;-1.90;76.80
3850;DHT22;1940;51.052;13.678;2022-12-18T13:28:12;-2.00;76.90
3850;DHT22;1940;51.052;13.678;2022-12-18T13:41:10;-2.10;77.50
3850;DHT22;1940;51.052;13.678;2022-12-18T13:43:56;-2.10;77.30
3850;DHT22;1940;51.052;13.678;2022-12-18T13:46:47;-2.20;77.40
3850;DHT22;1940;51.052;13.678;2022-12-18T13:51:44;-2.10;77.60
3850;DHT22;1940;51.052;13.678;2022-12-18T13:56:50;-2.10;78.00
3850;DHT22;1940;51.052;13.678;2022-12-18T14:01:43;-2.20;78.40
3850;DHT22;1940;51.052;13.678;2022-12-18T14:04:20;-2.20;78.70
3850;DHT22;1940;51.052;13.678;2022-12-18T14:06:47;-2.30;79.10
3850;DHT22;1940;51.052;13.678;2022-12-18T14:09:16;-2.40;79.30
3850;DHT22;1940;51.052;13.678;2022-12-18T14:11:49;-2.40;79.70
3850;DHT22;1940;51.052;13.678;2022-12-18T14:14:17;-2.50;79.70
3850;DHT22;1940;51.052;13.678;2022-12-18T14:16:43;-2.70;80.20
3850;DHT22;1940;51.052;13.678;2022-12-18T14:19:14;-2.70;80.90
3850;DHT22;1940;51.052;13.678;2022-12-18T14:21:46;-2.80;81.00
3850;DHT22;1940;51.052;13.678;2022-12-18T14:24:18;-2.80;81.30
3850;DHT22;1940;51.052;13.678;2022-12-18T14:26:44;-2.80;81.20
3850;DHT22;1940;51.052;13.678;2022-12-18T14:29:27;-2.80;81.50
3850;DHT22;1940;51.052;13.678;2022-12-18T14:32:11;-2.90;81.60
3850;DHT22;1940;51.052;13.678;2022-12-18T14:34:39;-3.00;81.90
3850;DHT22;1940;51.052;13.678;2022-12-18T14:37:06;-3.00;82.40
3850;DHT22;1940;51.052;13.678;2022-12-18T14:39:34;-3.00;82.30
3850;DHT22;1940;51.052;13.678;2022-12-18T14:42:00;-3.10;82.50
3850;DHT22;1940;51.052;13.678;2022-12-18T14:44:25;-3.10;82.70
3850;DHT22;1940;51.052;13.678;2022-12-18T14:46:51;-3.10;82.60
3850;DHT22;1940;51.052;13.678;2022-12-18T14:49:43;-3.10;83.00
3850;DHT22;1940;51.052;13.678;2022-12-18T14:52:26;-3.10;82.80
3850;DHT22;1940;51.052;13.678;2022-12-18T14:54:52;-3.20;82.50
3850;DHT22;1940;51.052;13.678;2022-12-18T14:57:22;-3.30;83.00
3850;DHT22;1940;51.052;13.678;2022-12-18T14:59:49;-3.30;83.10
3850;DHT22;1940;51.052;13.678;2022-12-18T15:02:22;-3.40;82.90
3850;DHT22;1940;51.052;13.678;2022-12-18T15:05:32;-3.40;83.10
3850;DHT22;1940;51.052;13.678;2022-12-18T15:07:53;-3.40;83.30
3850;DHT22;1940;51.052;13.678;2022-12-18T15:10:25;-3.50;83.40
3850;DHT22;1940;51.052;13.678;2022-12-18T15:18:13;-3.60;83.80
3850;DHT22;1940;51.052;13.678;2022-12-18T15:20:54;-3.70;84.00
3850;DHT22;1940;51.052;13.678;2022-12-18T15:23:47;-3.70;84.10
3850;DHT22;1940;51.052;13.678;2022-12-18T15:26:16;-3.70;84.10
3850;DHT22;1940;51.052;13.678;2022-12-18T15:28:53;-3.60;84.20
3850;DHT22;1940;51.052;13.678;2022-12-18T15:31:28;-3.70;84.00
3850;DHT22;1940;51.052;13.678;2022-12-18T15:36:23;-3.60;84.30
3850;DHT22;1940;51.052;13.678;2022-12-18T15:38:50;-3.70;84.10
3850;DHT22;1940;51.052;13.678;2022-12-18T15:41:20;-3.60;84.10
3850;DHT22;1940;51.052;13.678;2022-12-18T15:43:48;-3.60;83.90
3850;DHT22;1940;51.052;13.678;2022-12-18T15:46:16;-3.60;84.10
3850;DHT22;1940;51.052;13.678;2022-12-18T15:48:47;-3.70;84.00
3850;DHT22;1940;51.052;13.678;2022-12-18T15:51:20;-3.80;84.20
3850;DHT22;1940;51.052;13.678;2022-12-18T15:53:47;-3.80;84.50
3850;DHT22;1940;51.052;13.678;2022-12-18T15:56:14;-3.80;84.60
3850;DHT22;1940;51.052;13.678;2022-12-18T15:59:00;-3.90;84.40
3850;DHT22;1940;51.052;13.678;2022-12-18T16:01:27;-3.90;84.50
3850;DHT22;1940;51.052;13.678;2022-12-18T16:03:54;-3.90;84.40
3850;DHT22;1940;51.052;13.678;2022-12-18T16:06:20;-3.90;84.60
3850;DHT22;1940;51.052;13.678;2022-12-18T16:08:46;-3.90;84.70
3850;DHT22;1940;51.052;13.678;2022-12-18T16:13:45;-3.90;84.50
3850;DHT22;1940;51.052;13.678;2022-12-18T16:16:10;-4.00;84.70
3850;DHT22;1940;51.052;13.678;2022-12-18T16:18:36;-3.90;84.90
3850;DHT22;1940;51.052;13.678;2022-12-18T16:21:02;-3.90;85.00
3850;DHT22;1940;51.052;13.678;2022-12-18T16:23:28;-3.90;84.90
3850;DHT22;1940;51.052;13.678;2022-12-18T16:25:54;-3.90;84.80
3850;DHT22;1940;51.052;13.678;2022-12-18T16:28:19;-3.90;85.00
3850;DHT22;1940;51.052;13.678;2022-12-18T16:30:45;-3.90;85.00
3850;DHT22;1940;51.052;13.678;2022-12-18T16:33:10;-4.00;84.90
3850;DHT22;1940;51.052;13.678;2022-12-18T16:35:36;-4.00;85.00
3850;DHT22;1940;51.052;13.678;2022-12-18T16:38:02;-3.90;85.10
3850;DHT22;1940;51.052;13.678;2022-12-18T16:40:28;-4.00;85.10
3850;DHT22;1940;51.052;13.678;2022-12-18T16:42:56;-3.90;85.20
3850;DHT22;1940;51.052;13.678;2022-12-18T16:45:22;-4.00;84.90
3850;DHT22;1940;51.052;13.678;2022-12-18T16:47:47;-4.00;85.10
3850;DHT22;1940;51.052;13.678;2022-12-18T16:50:13;-4.00;85.00
3850;DHT22;1940;51.052;13.678;2022-12-18T16:52:39;-3.90;85.10
3850;DHT22;1940;51.052;13.678;2022-12-18T16:55:05;-3.90;85.10
3850;DHT22;1940;51.052;13.678;2022-12-18T16:57:31;-3.90;85.00
3850;DHT22;1940;51.052;13.678;2022-12-18T16:59:56;-3.90;84.90
3850;DHT22;1940;51.052;13.678;2022-12-18T17:02:24;-3.90;84.80
3850;DHT22;1940;51.052;13.678;2022-12-18T17:04:55;-4.00;85.20
3850;DHT22;1940;51.052;13.678;2022-12-18T17:07:22;-4.00;85.30
3850;DHT22;1940;51.052;13.678;2022-12-18T17:09:47;-4.00;85.40
3850;DHT22;1940;51.052;13.678;2022-12-18T17:12:14;-3.90;85.50
3850;DHT22;1940;51.052;13.678;2022-12-18T17:14:40;-3.90;85.40
3850;DHT22;1940;51.052;13.678;2022-12-18T17:17:05;-3.90;85.40
3850;DHT22;1940;51.052;13.678;2022-12-18T17:19:31;-3.90;85.30
3850;DHT22;1940;51.052;13.678;2022-12-18T17:21:57;-3.90;85.50
3850;DHT22;1940;51.052;13.678;2022-12-18T17:24:23;-4.00;85.40
3850;DHT22;1940;51.052;13.678;2022-12-18T17:26:48;-4.00;85.90
3850;DHT22;1940;51.052;13.678;2022-12-18T17:29:16;-4.00;86.00
3850;DHT22;1940;51.052;13.678;2022-12-18T17:31:42;-4.10;86.20
3850;DHT22;1940;51.052;13.678;2022-12-18T17:34:12;-4.10;86.20
3850;DHT22;1940;51.052;13.678;2022-12-18T17:36:38;-4.00;86.30
3850;DHT22;1940;51.052;13.678;2022-12-18T17:39:05;-4.00;86.10
3850;DHT22;1940;51.052;13.678;2022-12-18T17:41:31;-4.00;86.10
3850;DHT22;1940;51.052;13.678;2022-12-18T17:44:02;-3.90;86.10
3850;DHT22;1940;51.052;13.678;2022-12-18T17:46:29;-4.00;86.20
3850;DHT22;1940;51.052;13.678;2022-12-18T17:48:59;-4.00;86.10
3850;DHT22;1940;51.052;13.678;2022-12-18T17:51:26;-4.00;86.30